METAR LOCAUX

2022/12/06 02:30 LFST 060230Z AUTO 18003KT 9999 OVC029 04/03 Q1019 TEMPO 0500 FG VV///
2022/12/06 02:20 EDSB 060220Z AUTO 22004KT 9999 // FEW024/// OVC031/// 05/02 Q1019
2022/12/06 02:30 LFGA 060230Z AUTO 19003KT 9999 FEW040 SCT052 BKN072 02/01 Q1019
www.noaa.gov

Ne pas utiliser pour préparer ou effectuer un vol: Utilisez la documentation officielle disponible sur aviation.meteo.fr (Aéroweb)


"Le soleil du matin ne dure pas forcément toute la journée."

Animation satellite IR

Meteociel.fr

"Derrière chaque nuage se cache le ciel bleu."

Radar pluie

Infoclimat.fr

"Si tu veux l’arc-en-ciel, tu dois supporter la pluie."
Dolly Parton

Nébulosité (octas)

Meteociel.fr

"Le soleil est souvent obscurci par les nuages et la raison par les passions."
Démophile

Impacts de foudre

www.meteo60.fr

"Celui que frappe la foudre n'entend pas le tonnerre."

Vigilance météo

vigilance-meteo.fr

"Tout nuage n'enfante pas une tempête."
William Shakespeare

TAF locaux

2022/12/06 00:00 TAF LFST 052300Z 0600/0624 VRB03KT 9999 BKN035 TEMPO 0600/0608 3000 BR PROB30 TEMPO 0603/0606 0500 FG VV/// BECMG 0608/0610 BKN014
2022/12/05 18:30 TAF EDSB 051700Z 0518/0618 22004KT 9999 BKN030 PROB40 TEMPO 0601/0611 3500 -DZ BR FEW005 OVC010
www.noaa.gov

Ne pas utiliser pour préparer ou effectuer un vol: Utilisez la documentation officielle disponible sur aviation.meteo.fr (Aéroweb)


"Les jours où le ciel est gris, le soleil n'a pas disparu à tout jamais."
Arnaud Desjardins

Prévisions 7 jours


Meteoblue.com

"Quand les crapauds chantent, le beau temps s'avance !"